Terminal Aerodrome Forecast
Issued by NWS

Home | Current Version | Previous Version | Graphics & Text | Print | Product List | Glossary On
Versions: 1 2 3 4 5 6 7 8 9 10 11 12 13 14 15
409
FTUS43 KMPX 201729
TAFAXN
TAF
KAXN 201729Z 2018/2118 33012KT P6SM SKC
     FM210100 33004KT P6SM FEW250
     FM211200 14006KT P6SM BKN110
     FM211500 15012KT P6SM SCT050 BKN090=

USA.gov is the U.S. government's official web portal to all federal, state and local government web resources and services.